sensor_id;sensor_type;location;lat;lon;timestamp;P1;durP1;ratioP1;P2;durP2;ratioP2
48945;SDS011;34999;50.940;3.998;2023-06-04T00:00:15;5.20;;;2.70;;
48945;SDS011;34999;50.940;3.998;2023-06-04T00:02:44;2.20;;;1.93;;
48945;SDS011;34999;50.940;3.998;2023-06-04T00:05:14;2.30;;;2.20;;
48945;SDS011;34999;50.940;3.998;2023-06-04T00:07:42;3.80;;;2.30;;
48945;SDS011;34999;50.940;3.998;2023-06-04T00:10:10;3.90;;;2.20;;
48945;SDS011;34999;50.940;3.998;2023-06-04T00:12:39;5.30;;;1.80;;
48945;SDS011;34999;50.940;3.998;2023-06-04T00:15:07;1.93;;;1.93;;
48945;SDS011;34999;50.940;3.998;2023-06-04T00:17:36;2.30;;;2.20;;
48945;SDS011;34999;50.940;3.998;2023-06-04T00:20:04;2.17;;;2.07;;
48945;SDS011;34999;50.940;3.998;2023-06-04T00:22:35;3.23;;;2.20;;
48945;SDS011;34999;50.940;3.998;2023-06-04T00:25:03;2.40;;;2.20;;
48945;SDS011;34999;50.940;3.998;2023-06-04T00:27:32;6.20;;;2.90;;
48945;SDS011;34999;50.940;3.998;2023-06-04T00:30:00;3.93;;;2.60;;
48945;SDS011;34999;50.940;3.998;2023-06-04T00:32:29;2.50;;;2.30;;
48945;SDS011;34999;50.940;3.998;2023-06-04T00:34:57;4.33;;;2.50;;
48945;SDS011;34999;50.940;3.998;2023-06-04T00:37:25;2.63;;;2.53;;
48945;SDS011;34999;50.940;3.998;2023-06-04T00:39:56;6.60;;;2.50;;
48945;SDS011;34999;50.940;3.998;2023-06-04T00:42:25;2.77;;;2.57;;
48945;SDS011;34999;50.940;3.998;2023-06-04T00:44:53;2.77;;;2.50;;
48945;SDS011;34999;50.940;3.998;2023-06-04T00:47:24;3.10;;;2.33;;
48945;SDS011;34999;50.940;3.998;2023-06-04T00:49:53;2.77;;;2.53;;
48945;SDS011;34999;50.940;3.998;2023-06-04T00:52:24;3.10;;;2.67;;
48945;SDS011;34999;50.940;3.998;2023-06-04T00:54:54;3.83;;;2.67;;
48945;SDS011;34999;50.940;3.998;2023-06-04T00:57:23;4.20;;;2.50;;
48945;SDS011;34999;50.940;3.998;2023-06-04T00:59:52;3.00;;;2.80;;
48945;SDS011;34999;50.940;3.998;2023-06-04T01:02:21;5.43;;;2.97;;
48945;SDS011;34999;50.940;3.998;2023-06-04T01:04:53;3.43;;;2.40;;
48945;SDS011;34999;50.940;3.998;2023-06-04T01:07:27;3.97;;;2.83;;
48945;SDS011;34999;50.940;3.998;2023-06-04T01:09:57;3.00;;;2.80;;
48945;SDS011;34999;50.940;3.998;2023-06-04T01:12:27;2.87;;;2.67;;
48945;SDS011;34999;50.940;3.998;2023-06-04T01:14:56;2.77;;;2.67;;
48945;SDS011;34999;50.940;3.998;2023-06-04T01:17:25;3.43;;;2.80;;
48945;SDS011;34999;50.940;3.998;2023-06-04T01:20:22;4.17;;;2.70;;
48945;SDS011;34999;50.940;3.998;2023-06-04T01:23:10;3.20;;;2.90;;
48945;SDS011;34999;50.940;3.998;2023-06-04T01:25:47;9.40;;;3.20;;
48945;SDS011;34999;50.940;3.998;2023-06-04T01:28:18;5.63;;;2.80;;
48945;SDS011;34999;50.940;3.998;2023-06-04T01:30:48;3.17;;;2.90;;
48945;SDS011;34999;50.940;3.998;2023-06-04T01:33:18;3.30;;;3.00;;
48945;SDS011;34999;50.940;3.998;2023-06-04T01:35:47;3.67;;;2.97;;
48945;SDS011;34999;50.940;3.998;2023-06-04T01:38:15;3.33;;;3.03;;
48945;SDS011;34999;50.940;3.998;2023-06-04T01:40:44;3.50;;;3.20;;
48945;SDS011;34999;50.940;3.998;2023-06-04T01:43:13;3.47;;;3.10;;
48945;SDS011;34999;50.940;3.998;2023-06-04T01:45:43;3.43;;;3.10;;
48945;SDS011;34999;50.940;3.998;2023-06-04T01:48:12;3.87;;;3.37;;
48945;SDS011;34999;50.940;3.998;2023-06-04T01:50:40;3.10;;;2.90;;
48945;SDS011;34999;50.940;3.998;2023-06-04T01:53:08;4.63;;;3.20;;
48945;SDS011;34999;50.940;3.998;2023-06-04T01:55:37;5.83;;;3.27;;
48945;SDS011;34999;50.940;3.998;2023-06-04T01:58:05;4.10;;;2.90;;
48945;SDS011;34999;50.940;3.998;2023-06-04T02:00:35;4.90;;;2.93;;
48945;SDS011;34999;50.940;3.998;2023-06-04T02:03:05;3.07;;;2.87;;
48945;SDS011;34999;50.940;3.998;2023-06-04T02:05:35;3.80;;;3.50;;
48945;SDS011;34999;50.940;3.998;2023-06-04T02:08:04;4.23;;;3.00;;
48945;SDS011;34999;50.940;3.998;2023-06-04T02:10:32;3.63;;;3.30;;
48945;SDS011;34999;50.940;3.998;2023-06-04T02:13:01;3.17;;;2.90;;
48945;SDS011;34999;50.940;3.998;2023-06-04T02:15:30;4.07;;;3.10;;
48945;SDS011;34999;50.940;3.998;2023-06-04T02:18:10;4.07;;;3.40;;
48945;SDS011;34999;50.940;3.998;2023-06-04T02:20:43;3.30;;;3.00;;
48945;SDS011;34999;50.940;3.998;2023-06-04T02:23:12;3.37;;;3.00;;
48945;SDS011;34999;50.940;3.998;2023-06-04T02:25:44;8.43;;;3.40;;
48945;SDS011;34999;50.940;3.998;2023-06-04T02:28:14;4.33;;;3.70;;
48945;SDS011;34999;50.940;3.998;2023-06-04T02:30:43;3.43;;;3.20;;
48945;SDS011;34999;50.940;3.998;2023-06-04T02:33:14;9.40;;;3.50;;
48945;SDS011;34999;50.940;3.998;2023-06-04T02:35:43;4.83;;;3.33;;
48945;SDS011;34999;50.940;3.998;2023-06-04T02:38:11;5.03;;;3.27;;
48945;SDS011;34999;50.940;3.998;2023-06-04T02:40:39;5.40;;;3.10;;
48945;SDS011;34999;50.940;3.998;2023-06-04T02:43:09;3.40;;;3.10;;
48945;SDS011;34999;50.940;3.998;2023-06-04T02:45:39;6.00;;;3.03;;
48945;SDS011;34999;50.940;3.998;2023-06-04T02:48:07;4.63;;;3.57;;
48945;SDS011;34999;50.940;3.998;2023-06-04T02:50:37;4.90;;;3.40;;
48945;SDS011;34999;50.940;3.998;2023-06-04T02:53:08;3.73;;;3.33;;
48945;SDS011;34999;50.940;3.998;2023-06-04T02:55:37;2.97;;;2.77;;
48945;SDS011;34999;50.940;3.998;2023-06-04T02:58:08;3.80;;;3.10;;
48945;SDS011;34999;50.940;3.998;2023-06-04T03:00:36;3.50;;;3.20;;
48945;SDS011;34999;50.940;3.998;2023-06-04T03:03:05;3.30;;;3.10;;
48945;SDS011;34999;50.940;3.998;2023-06-04T03:05:33;4.00;;;3.50;;
48945;SDS011;34999;50.940;3.998;2023-06-04T03:08:04;6.20;;;3.30;;
48945;SDS011;34999;50.940;3.998;2023-06-04T03:10:33;3.80;;;3.50;;
48945;SDS011;34999;50.940;3.998;2023-06-04T03:13:01;3.77;;;3.30;;
48945;SDS011;34999;50.940;3.998;2023-06-04T03:15:30;3.53;;;3.23;;
48945;SDS011;34999;50.940;3.998;2023-06-04T03:17:58;3.40;;;3.20;;
48945;SDS011;34999;50.940;3.998;2023-06-04T03:20:27;5.20;;;3.23;;
48945;SDS011;34999;50.940;3.998;2023-06-04T03:22:58;6.40;;;3.40;;
48945;SDS011;34999;50.940;3.998;2023-06-04T03:25:28;6.43;;;3.53;;
48945;SDS011;34999;50.940;3.998;2023-06-04T03:27:56;3.70;;;3.50;;
48945;SDS011;34999;50.940;3.998;2023-06-04T03:30:24;4.63;;;3.60;;
48945;SDS011;34999;50.940;3.998;2023-06-04T03:32:53;4.20;;;3.13;;
48945;SDS011;34999;50.940;3.998;2023-06-04T03:35:21;3.83;;;3.10;;
48945;SDS011;34999;50.940;3.998;2023-06-04T03:37:49;4.70;;;3.20;;
48945;SDS011;34999;50.940;3.998;2023-06-04T03:40:17;4.20;;;3.23;;
48945;SDS011;34999;50.940;3.998;2023-06-04T03:42:47;3.60;;;3.30;;
48945;SDS011;34999;50.940;3.998;2023-06-04T03:45:16;4.10;;;3.70;;
48945;SDS011;34999;50.940;3.998;2023-06-04T03:47:45;3.80;;;3.50;;
48945;SDS011;34999;50.940;3.998;2023-06-04T03:50:13;3.67;;;3.47;;
48945;SDS011;34999;50.940;3.998;2023-06-04T03:52:42;3.97;;;3.60;;
48945;SDS011;34999;50.940;3.998;2023-06-04T03:55:10;3.43;;;3.23;;
48945;SDS011;34999;50.940;3.998;2023-06-04T03:57:38;6.53;;;3.93;;
48945;SDS011;34999;50.940;3.998;2023-06-04T04:00:10;5.47;;;3.60;;
48945;SDS011;34999;50.940;3.998;2023-06-04T04:02:39;5.03;;;3.40;;
48945;SDS011;34999;50.940;3.998;2023-06-04T04:05:08;3.87;;;3.67;;
48945;SDS011;34999;50.940;3.998;2023-06-04T04:07:40;3.80;;;3.50;;
48945;SDS011;34999;50.940;3.998;2023-06-04T04:10:08;5.00;;;3.70;;
48945;SDS011;34999;50.940;3.998;2023-06-04T04:12:37;3.77;;;3.40;;
48945;SDS011;34999;50.940;3.998;2023-06-04T04:15:06;5.87;;;3.50;;
48945;SDS011;34999;50.940;3.998;2023-06-04T04:17:36;5.00;;;3.93;;
48945;SDS011;34999;50.940;3.998;2023-06-04T04:20:05;5.90;;;3.70;;
48945;SDS011;34999;50.940;3.998;2023-06-04T04:22:33;5.57;;;3.67;;
48945;SDS011;34999;50.940;3.998;2023-06-04T04:25:02;3.97;;;3.47;;
48945;SDS011;34999;50.940;3.998;2023-06-04T04:27:30;4.93;;;3.20;;
48945;SDS011;34999;50.940;3.998;2023-06-04T04:30:01;4.33;;;3.87;;
48945;SDS011;34999;50.940;3.998;2023-06-04T04:32:30;4.17;;;3.77;;
48945;SDS011;34999;50.940;3.998;2023-06-04T04:35:00;3.53;;;3.33;;
48945;SDS011;34999;50.940;3.998;2023-06-04T04:37:30;3.20;;;3.00;;
48945;SDS011;34999;50.940;3.998;2023-06-04T04:39:58;8.53;;;3.50;;
48945;SDS011;34999;50.940;3.998;2023-06-04T04:42:27;4.17;;;3.77;;
48945;SDS011;34999;50.940;3.998;2023-06-04T04:44:55;6.13;;;3.43;;
48945;SDS011;34999;50.940;3.998;2023-06-04T04:47:23;5.63;;;4.17;;
48945;SDS011;34999;50.940;3.998;2023-06-04T04:49:52;3.93;;;3.63;;
48945;SDS011;34999;50.940;3.998;2023-06-04T04:52:22;5.17;;;3.43;;
48945;SDS011;34999;50.940;3.998;2023-06-04T04:54:50;9.07;;;3.70;;
48945;SDS011;34999;50.940;3.998;2023-06-04T04:57:22;3.37;;;3.20;;
48945;SDS011;34999;50.940;3.998;2023-06-04T04:59:50;3.67;;;3.40;;
48945;SDS011;34999;50.940;3.998;2023-06-04T05:02:18;5.87;;;3.50;;
48945;SDS011;34999;50.940;3.998;2023-06-04T05:04:47;3.90;;;3.63;;
48945;SDS011;34999;50.940;3.998;2023-06-04T05:07:15;3.90;;;3.60;;
48945;SDS011;34999;50.940;3.998;2023-06-04T05:09:45;3.60;;;3.30;;
48945;SDS011;34999;50.940;3.998;2023-06-04T05:12:13;8.20;;;3.70;;
48945;SDS011;34999;50.940;3.998;2023-06-04T05:14:42;3.63;;;3.33;;
48945;SDS011;34999;50.940;3.998;2023-06-04T05:17:10;3.73;;;3.30;;
48945;SDS011;34999;50.940;3.998;2023-06-04T05:19:39;3.97;;;3.60;;
48945;SDS011;34999;50.940;3.998;2023-06-04T05:22:08;3.50;;;3.23;;
48945;SDS011;34999;50.940;3.998;2023-06-04T05:24:36;5.90;;;3.30;;
48945;SDS011;34999;50.940;3.998;2023-06-04T05:27:06;4.10;;;3.27;;
48945;SDS011;34999;50.940;3.998;2023-06-04T05:29:35;3.37;;;3.07;;
48945;SDS011;34999;50.940;3.998;2023-06-04T05:32:04;3.87;;;3.50;;
48945;SDS011;34999;50.940;3.998;2023-06-04T05:34:32;3.80;;;3.20;;
48945;SDS011;34999;50.940;3.998;2023-06-04T05:37:03;3.20;;;3.00;;
48945;SDS011;34999;50.940;3.998;2023-06-04T05:39:37;3.97;;;3.13;;
48945;SDS011;34999;50.940;3.998;2023-06-04T05:42:07;3.40;;;2.90;;
48945;SDS011;34999;50.940;3.998;2023-06-04T05:44:35;6.57;;;3.23;;
48945;SDS011;34999;50.940;3.998;2023-06-04T05:47:04;4.70;;;3.17;;
48945;SDS011;34999;50.940;3.998;2023-06-04T05:49:33;3.23;;;2.90;;
48945;SDS011;34999;50.940;3.998;2023-06-04T05:52:02;3.40;;;3.10;;
48945;SDS011;34999;50.940;3.998;2023-06-04T05:54:30;4.43;;;3.10;;
48945;SDS011;34999;50.940;3.998;2023-06-04T05:56:59;3.17;;;2.90;;
48945;SDS011;34999;50.940;3.998;2023-06-04T05:59:29;2.83;;;2.53;;
48945;SDS011;34999;50.940;3.998;2023-06-04T06:01:57;3.87;;;2.80;;
48945;SDS011;34999;50.940;3.998;2023-06-04T06:04:26;4.47;;;3.03;;
48945;SDS011;34999;50.940;3.998;2023-06-04T06:06:54;2.67;;;2.57;;
48945;SDS011;34999;50.940;3.998;2023-06-04T06:09:23;3.00;;;2.90;;
48945;SDS011;34999;50.940;3.998;2023-06-04T06:11:51;3.13;;;2.93;;
48945;SDS011;34999;50.940;3.998;2023-06-04T06:14:20;6.30;;;3.10;;
48945;SDS011;34999;50.940;3.998;2023-06-04T06:16:51;3.20;;;3.00;;
48945;SDS011;34999;50.940;3.998;2023-06-04T06:19:19;4.43;;;3.20;;
48945;SDS011;34999;50.940;3.998;2023-06-04T06:21:47;2.60;;;2.40;;
48945;SDS011;34999;50.940;3.998;2023-06-04T06:24:15;3.13;;;2.83;;
48945;SDS011;34999;50.940;3.998;2023-06-04T06:26:44;4.57;;;2.90;;
48945;SDS011;34999;50.940;3.998;2023-06-04T06:29:12;2.90;;;2.63;;
48945;SDS011;34999;50.940;3.998;2023-06-04T06:31:41;8.13;;;3.10;;
48945;SDS011;34999;50.940;3.998;2023-06-04T06:34:11;2.83;;;2.53;;
48945;SDS011;34999;50.940;3.998;2023-06-04T06:36:39;4.83;;;3.00;;
48945;SDS011;34999;50.940;3.998;2023-06-04T06:39:08;3.67;;;2.87;;
48945;SDS011;34999;50.940;3.998;2023-06-04T06:41:36;2.90;;;2.70;;
48945;SDS011;34999;50.940;3.998;2023-06-04T06:44:06;4.73;;;2.47;;
48945;SDS011;34999;50.940;3.998;2023-06-04T06:46:34;3.80;;;3.00;;
48945;SDS011;34999;50.940;3.998;2023-06-04T06:49:02;10.23;;;3.27;;
48945;SDS011;34999;50.940;3.998;2023-06-04T06:51:32;3.77;;;2.20;;
48945;SDS011;34999;50.940;3.998;2023-06-04T06:54:01;3.00;;;2.43;;
48945;SDS011;34999;50.940;3.998;2023-06-04T06:56:29;3.00;;;2.70;;
48945;SDS011;34999;50.940;3.998;2023-06-04T06:58:57;2.70;;;2.60;;
48945;SDS011;34999;50.940;3.998;2023-06-04T07:01:26;2.77;;;2.30;;
48945;SDS011;34999;50.940;3.998;2023-06-04T07:03:54;2.20;;;2.10;;
48945;SDS011;34999;50.940;3.998;2023-06-04T07:06:23;2.50;;;2.30;;
48945;SDS011;34999;50.940;3.998;2023-06-04T07:08:52;3.13;;;2.27;;
48945;SDS011;34999;50.940;3.998;2023-06-04T07:11:20;2.20;;;2.10;;
48945;SDS011;34999;50.940;3.998;2023-06-04T07:13:49;3.70;;;2.30;;
48945;SDS011;34999;50.940;3.998;2023-06-04T07:16:17;2.40;;;2.30;;
48945;SDS011;34999;50.940;3.998;2023-06-04T07:18:47;2.60;;;2.43;;
48945;SDS011;34999;50.940;3.998;2023-06-04T07:21:16;3.07;;;2.33;;
48945;SDS011;34999;50.940;3.998;2023-06-04T07:23:46;2.77;;;2.57;;
48945;SDS011;34999;50.940;3.998;2023-06-04T07:26:17;2.10;;;2.10;;
48945;SDS011;34999;50.940;3.998;2023-06-04T07:28:46;2.40;;;2.30;;
48945;SDS011;34999;50.940;3.998;2023-06-04T07:31:15;2.70;;;2.30;;
48945;SDS011;34999;50.940;3.998;2023-06-04T07:33:43;3.30;;;2.50;;
48945;SDS011;34999;50.940;3.998;2023-06-04T07:36:12;2.33;;;2.17;;
48945;SDS011;34999;50.940;3.998;2023-06-04T07:38:41;2.40;;;2.30;;
48945;SDS011;34999;50.940;3.998;2023-06-04T07:41:09;6.23;;;2.40;;
48945;SDS011;34999;50.940;3.998;2023-06-04T07:43:39;2.37;;;2.27;;
48945;SDS011;34999;50.940;3.998;2023-06-04T07:46:07;3.10;;;2.00;;
48945;SDS011;34999;50.940;3.998;2023-06-04T07:48:36;2.00;;;1.90;;
48945;SDS011;34999;50.940;3.998;2023-06-04T07:51:04;7.70;;;2.33;;
48945;SDS011;34999;50.940;3.998;2023-06-04T07:53:34;3.33;;;1.93;;
48945;SDS011;34999;50.940;3.998;2023-06-04T07:56:02;3.23;;;1.97;;
48945;SDS011;34999;50.940;3.998;2023-06-04T07:58:31;2.27;;;2.17;;
48945;SDS011;34999;50.940;3.998;2023-06-04T08:01:00;2.23;;;2.13;;
48945;SDS011;34999;50.940;3.998;2023-06-04T08:03:29;2.13;;;2.03;;
48945;SDS011;34999;50.940;3.998;2023-06-04T08:05:58;2.63;;;2.43;;
48945;SDS011;34999;50.940;3.998;2023-06-04T08:08:30;2.10;;;2.00;;
48945;SDS011;34999;50.940;3.998;2023-06-04T08:11:00;3.63;;;2.03;;
48945;SDS011;34999;50.940;3.998;2023-06-04T08:13:28;1.80;;;1.70;;
48945;SDS011;34999;50.940;3.998;2023-06-04T08:15:57;1.83;;;1.80;;
48945;SDS011;34999;50.940;3.998;2023-06-04T08:18:27;1.87;;;1.77;;
48945;SDS011;34999;50.940;3.998;2023-06-04T08:20:55;2.00;;;1.70;;
48945;SDS011;34999;50.940;3.998;2023-06-04T08:23:23;2.20;;;2.10;;
48945;SDS011;34999;50.940;3.998;2023-06-04T08:25:52;4.03;;;1.80;;
48945;SDS011;34999;50.940;3.998;2023-06-04T08:28:20;1.90;;;1.80;;
48945;SDS011;34999;50.940;3.998;2023-06-04T08:30:49;1.80;;;1.70;;
48945;SDS011;34999;50.940;3.998;2023-06-04T08:33:17;2.00;;;1.90;;
48945;SDS011;34999;50.940;3.998;2023-06-04T08:35:47;2.03;;;1.90;;
48945;SDS011;34999;50.940;3.998;2023-06-04T08:38:15;2.70;;;1.83;;
48945;SDS011;34999;50.940;3.998;2023-06-04T08:40:44;1.90;;;1.70;;
48945;SDS011;34999;50.940;3.998;2023-06-04T08:43:12;2.33;;;1.73;;
48945;SDS011;34999;50.940;3.998;2023-06-04T08:45:42;1.50;;;1.50;;
48945;SDS011;34999;50.940;3.998;2023-06-04T08:48:15;5.07;;;1.90;;
48945;SDS011;34999;50.940;3.998;2023-06-04T08:50:47;3.20;;;1.77;;
48945;SDS011;34999;50.940;3.998;2023-06-04T08:53:17;2.90;;;1.93;;
48945;SDS011;34999;50.940;3.998;2023-06-04T08:55:46;3.53;;;1.60;;
48945;SDS011;34999;50.940;3.998;2023-06-04T08:58:18;1.80;;;1.70;;
48945;SDS011;34999;50.940;3.998;2023-06-04T09:00:47;1.70;;;1.40;;
48945;SDS011;34999;50.940;3.998;2023-06-04T09:03:16;2.10;;;1.47;;
48945;SDS011;34999;50.940;3.998;2023-06-04T09:05:48;2.57;;;1.80;;
48945;SDS011;34999;50.940;3.998;2023-06-04T09:08:17;1.47;;;1.47;;
48945;SDS011;34999;50.940;3.998;2023-06-04T09:10:49;1.50;;;1.50;;
48945;SDS011;34999;50.940;3.998;2023-06-04T09:13:20;2.00;;;1.40;;
48945;SDS011;34999;50.940;3.998;2023-06-04T09:15:58;1.23;;;1.23;;
48945;SDS011;34999;50.940;3.998;2023-06-04T09:18:27;2.47;;;1.43;;
48945;SDS011;34999;50.940;3.998;2023-06-04T09:21:06;1.30;;;1.30;;
48945;SDS011;34999;50.940;3.998;2023-06-04T09:23:36;2.10;;;1.40;;
48945;SDS011;34999;50.940;3.998;2023-06-04T09:26:11;1.58;;;1.50;;
48945;SDS011;34999;50.940;3.998;2023-06-04T09:28:40;2.53;;;1.50;;
48945;SDS011;34999;50.940;3.998;2023-06-04T09:31:09;1.60;;;1.35;;
48945;SDS011;34999;50.940;3.998;2023-06-04T09:33:44;1.70;;;1.60;;
48945;SDS011;34999;50.940;3.998;2023-06-04T09:36:14;1.33;;;1.33;;
48945;SDS011;34999;50.940;3.998;2023-06-04T09:38:42;1.45;;;1.35;;
48945;SDS011;34999;50.940;3.998;2023-06-04T09:41:12;1.77;;;1.48;;
48945;SDS011;34999;50.940;3.998;2023-06-04T09:43:40;1.58;;;1.48;;
48945;SDS011;34999;50.940;3.998;2023-06-04T09:46:10;2.58;;;1.40;;
48945;SDS011;34999;50.940;3.998;2023-06-04T09:48:40;4.22;;;1.52;;
48945;SDS011;34999;50.940;3.998;2023-06-04T09:51:09;1.45;;;1.33;;
48945;SDS011;34999;50.940;3.998;2023-06-04T09:53:40;2.80;;;1.65;;
48945;SDS011;34999;50.940;3.998;2023-06-04T09:56:09;1.67;;;1.35;;
48945;SDS011;34999;50.940;3.998;2023-06-04T09:58:37;1.38;;;1.27;;
48945;SDS011;34999;50.940;3.998;2023-06-04T10:01:09;4.20;;;1.40;;
48945;SDS011;34999;50.940;3.998;2023-06-04T10:03:38;1.42;;;1.40;;
48945;SDS011;34999;50.940;3.998;2023-06-04T10:06:08;1.23;;;1.20;;
48945;SDS011;34999;50.940;3.998;2023-06-04T10:08:38;3.28;;;1.50;;
48945;SDS011;34999;50.940;3.998;2023-06-04T10:11:10;1.52;;;1.40;;
48945;SDS011;34999;50.940;3.998;2023-06-04T10:13:41;1.20;;;1.20;;
48945;SDS011;34999;50.940;3.998;2023-06-04T10:16:14;1.30;;;1.30;;
48945;SDS011;34999;50.940;3.998;2023-06-04T10:18:59;3.63;;;1.50;;
48945;SDS011;34999;50.940;3.998;2023-06-04T10:21:28;1.48;;;1.45;;
48945;SDS011;34999;50.940;3.998;2023-06-04T10:23:59;2.80;;;1.38;;
48945;SDS011;34999;50.940;3.998;2023-06-04T10:26:28;3.03;;;1.35;;
48945;SDS011;34999;50.940;3.998;2023-06-04T10:28:57;2.85;;;1.48;;
48945;SDS011;34999;50.940;3.998;2023-06-04T10:31:27;4.13;;;1.30;;
48945;SDS011;34999;50.940;3.998;2023-06-04T10:33:56;5.60;;;1.30;;
48945;SDS011;34999;50.940;3.998;2023-06-04T10:36:25;5.75;;;1.40;;
48945;SDS011;34999;50.940;3.998;2023-06-04T10:38:55;1.83;;;1.33;;
48945;SDS011;34999;50.940;3.998;2023-06-04T10:41:25;3.15;;;1.38;;
48945;SDS011;34999;50.940;3.998;2023-06-04T10:44:00;2.83;;;1.58;;
48945;SDS011;34999;50.940;3.998;2023-06-04T10:46:37;2.08;;;1.30;;
48945;SDS011;34999;50.940;3.998;2023-06-04T10:49:08;1.42;;;1.33;;
48945;SDS011;34999;50.940;3.998;2023-06-04T10:51:37;1.42;;;1.38;;
48945;SDS011;34999;50.940;3.998;2023-06-04T10:54:05;1.48;;;1.30;;
48945;SDS011;34999;50.940;3.998;2023-06-04T10:56:35;1.95;;;1.33;;
48945;SDS011;34999;50.940;3.998;2023-06-04T10:59:14;1.55;;;1.42;;
48945;SDS011;34999;50.940;3.998;2023-06-04T11:01:43;2.72;;;1.52;;
48945;SDS011;34999;50.940;3.998;2023-06-04T11:04:18;1.52;;;1.52;;
48945;SDS011;34999;50.940;3.998;2023-06-04T11:07:00;2.25;;;1.35;;
48945;SDS011;34999;50.940;3.998;2023-06-04T11:09:30;2.35;;;2.00;;
48945;SDS011;34999;50.940;3.998;2023-06-04T11:12:01;1.52;;;1.40;;
48945;SDS011;34999;50.940;3.998;2023-06-04T11:14:32;1.60;;;1.50;;
48945;SDS011;34999;50.940;3.998;2023-06-04T11:17:08;2.40;;;1.20;;
48945;SDS011;34999;50.940;3.998;2023-06-04T11:19:37;2.20;;;1.45;;
48945;SDS011;34999;50.940;3.998;2023-06-04T11:22:07;2.67;;;1.50;;
48945;SDS011;34999;50.940;3.998;2023-06-04T11:24:39;3.80;;;1.40;;
48945;SDS011;34999;50.940;3.998;2023-06-04T11:27:09;1.58;;;1.48;;
48945;SDS011;34999;50.940;3.998;2023-06-04T11:29:48;1.52;;;1.42;;
48945;SDS011;34999;50.940;3.998;2023-06-04T11:32:22;2.53;;;1.43;;
48945;SDS011;34999;50.940;3.998;2023-06-04T11:34:51;2.00;;;1.40;;
48945;SDS011;34999;50.940;3.998;2023-06-04T11:37:29;1.63;;;1.40;;
48945;SDS011;34999;50.940;3.998;2023-06-04T11:39:59;1.60;;;1.23;;
48945;SDS011;34999;50.940;3.998;2023-06-04T11:42:29;1.60;;;1.50;;
48945;SDS011;34999;50.940;3.998;2023-06-04T11:44:58;1.20;;;1.20;;
48945;SDS011;34999;50.940;3.998;2023-06-04T11:47:27;1.53;;;1.40;;
48945;SDS011;34999;50.940;3.998;2023-06-04T11:49:57;1.17;;;1.17;;
48945;SDS011;34999;50.940;3.998;2023-06-04T11:52:27;2.70;;;1.47;;
48945;SDS011;34999;50.940;3.998;2023-06-04T11:54:55;2.57;;;1.43;;
48945;SDS011;34999;50.940;3.998;2023-06-04T11:57:24;1.70;;;1.67;;
48945;SDS011;34999;50.940;3.998;2023-06-04T11:59:53;1.50;;;1.50;;
48945;SDS011;34999;50.940;3.998;2023-06-04T12:02:22;1.40;;;1.40;;
48945;SDS011;34999;50.940;3.998;2023-06-04T12:04:51;1.70;;;1.40;;
48945;SDS011;34999;50.940;3.998;2023-06-04T12:07:21;1.57;;;1.30;;
48945;SDS011;34999;50.940;3.998;2023-06-04T12:09:53;2.03;;;1.30;;
48945;SDS011;34999;50.940;3.998;2023-06-04T12:12:22;1.93;;;1.53;;
48945;SDS011;34999;50.940;3.998;2023-06-04T12:14:58;1.50;;;1.50;;
48945;SDS011;34999;50.940;3.998;2023-06-04T12:17:27;1.60;;;1.50;;
48945;SDS011;34999;50.940;3.998;2023-06-04T12:19:55;2.30;;;1.47;;
48945;SDS011;34999;50.940;3.998;2023-06-04T12:22:25;3.03;;;1.80;;
48945;SDS011;34999;50.940;3.998;2023-06-04T12:24:54;2.63;;;1.50;;
48945;SDS011;34999;50.940;3.998;2023-06-04T12:27:25;1.53;;;1.43;;
48945;SDS011;34999;50.940;3.998;2023-06-04T12:29:54;1.57;;;1.47;;
48945;SDS011;34999;50.940;3.998;2023-06-04T12:32:25;1.63;;;1.40;;
48945;SDS011;34999;50.940;3.998;2023-06-04T12:34:54;1.63;;;1.30;;
48945;SDS011;34999;50.940;3.998;2023-06-04T12:37:23;1.70;;;1.60;;
48945;SDS011;34999;50.940;3.998;2023-06-04T12:39:54;6.53;;;1.37;;
48945;SDS011;34999;50.940;3.998;2023-06-04T12:42:22;1.87;;;1.60;;
48945;SDS011;34999;50.940;3.998;2023-06-04T12:44:51;1.53;;;1.50;;
48945;SDS011;34999;50.940;3.998;2023-06-04T12:47:19;2.00;;;1.37;;
48945;SDS011;34999;50.940;3.998;2023-06-04T12:49:49;3.90;;;1.70;;
48945;SDS011;34999;50.940;3.998;2023-06-04T12:52:18;2.60;;;1.40;;
48945;SDS011;34999;50.940;3.998;2023-06-04T12:54:47;4.30;;;1.70;;
48945;SDS011;34999;50.940;3.998;2023-06-04T12:57:16;1.30;;;1.30;;
48945;SDS011;34999;50.940;3.998;2023-06-04T12:59:44;1.83;;;1.73;;
48945;SDS011;34999;50.940;3.998;2023-06-04T13:02:12;7.03;;;1.83;;
48945;SDS011;34999;50.940;3.998;2023-06-04T13:04:41;1.47;;;1.37;;
48945;SDS011;34999;50.940;3.998;2023-06-04T13:07:12;2.00;;;1.60;;
48945;SDS011;34999;50.940;3.998;2023-06-04T13:09:41;1.80;;;1.70;;
48945;SDS011;34999;50.940;3.998;2023-06-04T13:12:09;2.20;;;1.80;;
48945;SDS011;34999;50.940;3.998;2023-06-04T13:14:37;1.90;;;1.40;;
48945;SDS011;34999;50.940;3.998;2023-06-04T13:17:05;1.70;;;1.60;;
48945;SDS011;34999;50.940;3.998;2023-06-04T13:19:48;1.60;;;1.50;;
48945;SDS011;34999;50.940;3.998;2023-06-04T13:22:17;3.07;;;1.40;;
48945;SDS011;34999;50.940;3.998;2023-06-04T13:24:46;2.67;;;1.90;;
48945;SDS011;34999;50.940;3.998;2023-06-04T13:27:14;1.60;;;1.60;;
48945;SDS011;34999;50.940;3.998;2023-06-04T13:29:42;1.67;;;1.67;;
48945;SDS011;34999;50.940;3.998;2023-06-04T13:32:11;4.10;;;1.80;;
48945;SDS011;34999;50.940;3.998;2023-06-04T13:34:39;1.83;;;1.73;;
48945;SDS011;34999;50.940;3.998;2023-06-04T13:37:08;2.20;;;2.00;;
48945;SDS011;34999;50.940;3.998;2023-06-04T13:39:39;1.63;;;1.57;;
48945;SDS011;34999;50.940;3.998;2023-06-04T13:42:08;1.63;;;1.63;;
48945;SDS011;34999;50.940;3.998;2023-06-04T13:44:39;1.43;;;1.33;;
48945;SDS011;34999;50.940;3.998;2023-06-04T13:47:07;1.50;;;1.50;;
48945;SDS011;34999;50.940;3.998;2023-06-04T13:49:35;2.20;;;1.60;;
48945;SDS011;34999;50.940;3.998;2023-06-04T13:52:04;1.80;;;1.70;;
48945;SDS011;34999;50.940;3.998;2023-06-04T13:54:32;1.73;;;1.63;;
48945;SDS011;34999;50.940;3.998;2023-06-04T13:57:02;2.30;;;1.47;;
48945;SDS011;34999;50.940;3.998;2023-06-04T13:59:33;2.03;;;1.53;;
48945;SDS011;34999;50.940;3.998;2023-06-04T14:02:02;2.73;;;1.40;;
48945;SDS011;34999;50.940;3.998;2023-06-04T14:04:30;1.50;;;1.50;;
48945;SDS011;34999;50.940;3.998;2023-06-04T14:06:59;1.80;;;1.70;;
48945;SDS011;34999;50.940;3.998;2023-06-04T14:09:27;2.03;;;1.90;;
48945;SDS011;34999;50.940;3.998;2023-06-04T14:11:55;3.17;;;1.77;;
48945;SDS011;34999;50.940;3.998;2023-06-04T14:14:26;2.20;;;1.60;;
48945;SDS011;34999;50.940;3.998;2023-06-04T14:16:55;1.60;;;1.50;;
48945;SDS011;34999;50.940;3.998;2023-06-04T14:19:24;3.40;;;1.70;;
48945;SDS011;34999;50.940;3.998;2023-06-04T14:21:52;2.60;;;1.80;;
48945;SDS011;34999;50.940;3.998;2023-06-04T14:24:21;1.50;;;1.40;;
48945;SDS011;34999;50.940;3.998;2023-06-04T14:26:49;2.03;;;1.70;;
48945;SDS011;34999;50.940;3.998;2023-06-04T14:29:18;1.70;;;1.60;;
48945;SDS011;34999;50.940;3.998;2023-06-04T14:31:47;2.13;;;1.53;;
48945;SDS011;34999;50.940;3.998;2023-06-04T14:34:16;2.07;;;1.50;;
48945;SDS011;34999;50.940;3.998;2023-06-04T14:36:45;1.93;;;1.57;;
48945;SDS011;34999;50.940;3.998;2023-06-04T14:39:13;2.17;;;1.83;;
48945;SDS011;34999;50.940;3.998;2023-06-04T14:41:41;2.07;;;1.93;;
48945;SDS011;34999;50.940;3.998;2023-06-04T14:44:10;1.50;;;1.50;;
48945;SDS011;34999;50.940;3.998;2023-06-04T14:46:39;2.50;;;1.67;;
48945;SDS011;34999;50.940;3.998;2023-06-04T14:49:09;3.17;;;1.87;;
48945;SDS011;34999;50.940;3.998;2023-06-04T14:51:37;4.30;;;1.70;;
48945;SDS011;34999;50.940;3.998;2023-06-04T14:54:06;2.60;;;1.90;;
48945;SDS011;34999;50.940;3.998;2023-06-04T14:56:34;2.53;;;1.70;;
48945;SDS011;34999;50.940;3.998;2023-06-04T14:59:02;4.57;;;1.97;;
48945;SDS011;34999;50.940;3.998;2023-06-04T15:01:35;3.00;;;1.73;;